Terminal Aerodrome Forecast
Issued by NWS

Home | Current Version | Previous Version | Text Only | Print | Product List | Glossary On
Versions: 1 2 3 4 5 6 7 8 9 10 11 12 13 14
000
FTUS45 KLKN 302320
TAFEKO
TAF
KEKO 302320Z 3100/3124 VRB06KT P6SM VCTS SCT070CB BKN110
     FM310100 VRB06KT P6SM VCSH FEW070 SCT120
     FM310400 VRB04KT P6SM FEW120
     FM312000 25010G20KT P6SM SCT120=

USA.gov is the U.S. government's official web portal to all federal, state and local government web resources and services.